createdAt,value
2022-10-20T00:00:31.041Z,8.48
2022-10-20T00:01:30.936Z,8.47
2022-10-20T00:02:31.029Z,8.47
2022-10-20T00:03:30.881Z,8.48
2022-10-20T00:04:30.887Z,8.43
2022-10-20T00:05:30.820Z,8.44
2022-10-20T00:06:30.920Z,8.45
2022-10-20T00:07:30.921Z,8.41
2022-10-20T00:08:30.829Z,8.45
2022-10-20T00:09:30.885Z,8.44
2022-10-20T00:10:30.937Z,8.43
2022-10-20T00:11:30.704Z,8.45
2022-10-20T00:12:30.719Z,8.41
2022-10-20T00:13:30.688Z,8.41
2022-10-20T00:14:30.798Z,8.44
2022-10-20T00:15:30.670Z,8.45
2022-10-20T00:16:30.849Z,8.41
2022-10-20T00:17:30.711Z,8.40
2022-10-20T00:18:30.734Z,8.41
2022-10-20T00:19:30.622Z,8.43
2022-10-20T00:20:30.801Z,8.37
2022-10-20T00:21:30.579Z,8.37
2022-10-20T00:22:30.604Z,8.40
2022-10-20T00:23:30.589Z,8.40
2022-10-20T00:24:30.577Z,8.37
2022-10-20T00:25:30.600Z,8.37
2022-10-20T00:26:30.514Z,8.36
2022-10-20T00:27:30.619Z,8.38
2022-10-20T00:28:30.536Z,8.40
2022-10-20T00:29:30.512Z,8.36
2022-10-20T00:30:30.644Z,8.34
2022-10-20T00:31:30.547Z,8.36
2022-10-20T00:32:30.469Z,8.37
2022-10-20T00:33:30.512Z,8.40
2022-10-20T00:34:30.419Z,8.40
2022-10-20T00:35:30.452Z,8.38
2022-10-20T00:36:30.453Z,8.38
2022-10-20T00:37:30.447Z,8.37
2022-10-20T00:38:30.470Z,8.34
2022-10-20T00:39:30.426Z,8.34
2022-10-20T00:40:30.397Z,8.33
2022-10-20T00:41:30.560Z,8.33
2022-10-20T00:42:30.471Z,8.28
2022-10-20T00:43:30.379Z,8.30
2022-10-20T00:44:30.365Z,8.30
2022-10-20T00:45:30.409Z,8.26
2022-10-20T00:46:30.331Z,8.25
2022-10-20T00:47:30.307Z,8.26
2022-10-20T00:48:30.351Z,8.23
2022-10-20T00:49:30.273Z,8.26
2022-10-20T00:50:30.310Z,8.23
2022-10-20T00:51:30.270Z,8.20
2022-10-20T00:52:30.271Z,8.20
2022-10-20T00:53:30.231Z,8.22
2022-10-20T00:54:30.319Z,8.22
2022-10-20T00:55:30.509Z,8.20
2022-10-20T00:56:30.362Z,8.19
2022-10-20T00:57:30.180Z,8.20
2022-10-20T00:58:30.458Z,8.19
2022-10-20T02:49:45.429Z,8.04
2022-10-20T02:50:43.834Z,8.01
2022-10-20T02:51:43.788Z,8.01
2022-10-20T02:52:44.035Z,8.02
2022-10-20T02:53:43.832Z,7.97
2022-10-20T02:54:43.828Z,8.01
2022-10-20T02:55:43.774Z,7.97
2022-10-20T02:56:43.661Z,7.98
2022-10-20T02:57:43.638Z,8.00
2022-10-20T02:58:43.653Z,8.00
2022-10-20T02:59:43.591Z,7.98
2022-10-20T03:00:43.620Z,8.01
2022-10-20T03:01:43.780Z,7.98
2022-10-20T03:02:43.576Z,8.01
2022-10-20T03:03:43.573Z,8.04
2022-10-20T03:04:43.542Z,7.97
2022-10-20T03:05:43.568Z,7.97
2022-10-20T03:06:43.500Z,7.98
2022-10-20T03:07:43.594Z,7.97
2022-10-20T03:08:43.593Z,7.95
2022-10-20T03:09:43.588Z,7.95
2022-10-20T03:10:43.532Z,7.90
2022-10-20T03:11:43.511Z,7.95
2022-10-20T03:12:43.455Z,7.93
2022-10-20T03:13:43.447Z,7.97
2022-10-20T03:14:43.472Z,7.95
2022-10-20T03:15:43.384Z,7.90
2022-10-20T03:16:43.576Z,7.92
2022-10-20T03:17:43.404Z,7.90
2022-10-20T03:18:43.485Z,7.93
2022-10-20T03:19:43.401Z,7.95
2022-10-20T03:20:43.358Z,7.95
2022-10-20T03:21:43.352Z,7.97
2022-10-20T03:22:43.362Z,7.93
2022-10-20T03:23:43.350Z,7.97
2022-10-20T03:24:43.370Z,7.93
2022-10-20T03:25:43.363Z,7.92
2022-10-20T03:26:43.244Z,7.90
2022-10-20T03:27:43.247Z,7.90
2022-10-20T03:28:43.314Z,7.92
2022-10-20T03:29:43.339Z,7.93
2022-10-20T03:30:43.263Z,7.93
2022-10-20T03:31:43.261Z,7.95
2022-10-20T03:32:43.190Z,7.90
2022-10-20T03:33:43.238Z,7.95
2022-10-20T03:34:43.224Z,8.00
2022-10-20T03:35:43.268Z,7.95
2022-10-20T03:36:43.251Z,7.97
2022-10-20T03:37:43.110Z,7.97
2022-10-20T03:38:43.459Z,7.98
2022-10-20T03:39:43.110Z,7.97
2022-10-20T03:40:43.136Z,7.95
2022-10-20T03:41:43.230Z,7.92
2022-10-20T03:42:43.085Z,7.90
2022-10-20T03:43:43.127Z,7.93
2022-10-20T03:44:43.079Z,7.90
2022-10-20T03:45:43.083Z,7.92
2022-10-20T03:46:43.146Z,7.93
2022-10-20T03:47:43.098Z,7.92
2022-10-20T03:48:42.967Z,7.95
2022-10-20T03:49:43.083Z,7.92
2022-10-20T03:50:43.065Z,7.98
2022-10-20T03:51:42.934Z,7.93
2022-10-20T03:52:43.086Z,7.95
2022-10-20T03:53:42.954Z,7.97
2022-10-20T03:54:42.933Z,7.98
2022-10-20T03:55:42.954Z,8.02
2022-10-20T03:56:42.963Z,7.97
2022-10-20T03:57:42.984Z,8.00
2022-10-20T03:58:42.953Z,7.98
2022-10-20T03:59:42.980Z,7.98
2022-10-20T04:00:42.958Z,7.98
2022-10-20T04:01:42.916Z,8.00
2022-10-20T04:02:42.849Z,7.97
2022-10-20T04:03:42.777Z,7.97
2022-10-20T04:04:42.918Z,7.98
2022-10-20T04:05:42.835Z,8.01
2022-10-20T04:06:42.804Z,8.04
2022-10-20T04:07:42.830Z,8.04
2022-10-20T04:08:42.847Z,8.07
2022-10-20T04:09:42.742Z,8.04
2022-10-20T04:10:42.734Z,8.01
2022-10-20T04:11:42.888Z,8.01
2022-10-20T04:12:42.756Z,8.02
2022-10-20T04:13:42.732Z,8.05
2022-10-20T04:14:42.753Z,8.04
2022-10-20T04:15:42.713Z,8.05
2022-10-20T04:16:42.648Z,8.08
2022-10-20T04:17:42.679Z,8.10
2022-10-20T04:18:42.654Z,8.08
2022-10-20T04:19:42.610Z,8.08
2022-10-20T04:20:44.552Z,8.05
2022-10-20T04:21:42.574Z,8.08
2022-10-20T04:22:42.652Z,8.07
2022-10-20T04:23:42.674Z,8.10
2022-10-20T04:24:42.535Z,8.10
2022-10-20T04:25:42.618Z,8.11
2022-10-20T04:26:42.567Z,8.08
2022-10-20T04:27:42.542Z,8.10
2022-10-20T04:28:42.519Z,8.10
2022-10-20T04:29:42.624Z,8.12
2022-10-20T04:30:42.465Z,8.15
2022-10-20T04:31:45.375Z,8.12
2022-10-20T04:32:43.497Z,8.12
2022-10-20T04:33:42.507Z,8.15
2022-10-20T04:34:42.437Z,8.15
2022-10-20T04:35:42.438Z,8.15
2022-10-20T04:36:42.418Z,8.11
2022-10-20T04:37:42.475Z,8.15
2022-10-20T04:38:42.382Z,8.16
2022-10-20T05:04:20.937Z,8.22
2022-10-20T05:04:59.800Z,8.19
2022-10-20T05:05:59.786Z,8.18
2022-10-20T05:06:59.850Z,8.16
2022-10-20T05:07:59.792Z,8.18
2022-10-20T05:08:59.954Z,8.18
2022-10-20T05:09:59.811Z,8.19
2022-10-20T05:10:59.706Z,8.16
2022-10-20T05:11:59.839Z,8.18
2022-10-20T05:12:59.734Z,8.19
2022-10-20T05:13:59.681Z,8.19
2022-10-20T05:14:59.734Z,8.19
2022-10-20T05:15:59.683Z,8.25
2022-10-20T05:16:59.660Z,8.25
2022-10-20T05:17:59.675Z,8.23
2022-10-20T05:18:59.634Z,8.25
2022-10-20T05:19:59.679Z,8.23
2022-10-20T05:21:14.775Z,8.25
2022-10-20T05:22:00.611Z,8.25
2022-10-20T05:22:59.597Z,8.26
2022-10-20T05:23:59.623Z,8.28
2022-10-20T05:25:12.804Z,8.28
2022-10-20T05:26:00.584Z,8.23
2022-10-20T05:26:59.594Z,8.20
2022-10-20T05:27:59.608Z,8.25
2022-10-20T05:28:59.551Z,8.23
2022-10-20T05:29:59.484Z,8.19
2022-10-20T05:31:01.473Z,8.22
2022-10-20T05:31:59.481Z,8.25
2022-10-20T05:32:59.432Z,8.25
2022-10-20T05:33:59.492Z,8.25
2022-10-20T05:34:59.429Z,8.25
2022-10-20T05:35:59.461Z,8.23
2022-10-20T05:36:59.376Z,8.25
2022-10-20T05:37:59.409Z,8.26
2022-10-20T05:38:59.390Z,8.25
2022-10-20T05:39:59.371Z,8.29
2022-10-20T05:40:59.358Z,8.23
2022-10-20T05:41:59.341Z,8.25
2022-10-20T05:42:59.340Z,8.25
2022-10-20T05:43:59.345Z,8.28
2022-10-20T05:44:59.332Z,8.28
2022-10-20T05:45:59.293Z,8.28
2022-10-20T05:46:59.303Z,8.29
2022-10-20T05:47:59.324Z,8.25
2022-10-20T05:49:03.257Z,8.28
2022-10-20T05:49:59.280Z,8.26
2022-10-20T05:50:59.264Z,8.25
2022-10-20T05:51:59.231Z,8.23
2022-10-20T05:52:59.224Z,8.28
2022-10-20T05:53:59.245Z,8.26
2022-10-20T05:54:59.180Z,8.28
2022-10-20T05:55:59.146Z,8.26
2022-10-20T05:56:59.171Z,8.22
2022-10-20T05:57:59.188Z,8.29
2022-10-20T05:58:59.237Z,8.29
2022-10-20T05:59:59.107Z,8.26
2022-10-20T06:00:59.142Z,8.29
2022-10-20T06:01:59.140Z,8.30
2022-10-20T06:02:59.106Z,8.28
2022-10-20T06:03:59.061Z,8.29
2022-10-20T06:04:59.180Z,8.28
2022-10-20T06:05:59.037Z,8.25
2022-10-20T06:06:59.025Z,8.30
2022-10-20T06:07:59.054Z,8.26
2022-10-20T06:08:59.216Z,8.28
2022-10-20T06:09:58.983Z,8.30
2022-10-20T06:10:59.002Z,8.37
2022-10-20T06:11:59.007Z,8.33
2022-10-20T06:12:59.000Z,8.34
2022-10-20T06:13:59.071Z,8.36
2022-10-20T06:14:59.000Z,8.40
2022-10-20T06:15:58.961Z,8.40
2022-10-20T06:16:58.952Z,8.41
2022-10-20T06:17:58.910Z,8.40
2022-10-20T06:18:58.928Z,8.37
2022-10-20T06:19:58.993Z,8.43
2022-10-20T06:20:58.880Z,8.44
2022-10-20T06:22:03.799Z,8.43
2022-10-20T06:22:59.854Z,8.45
2022-10-20T06:23:58.868Z,8.44
2022-10-20T06:24:58.860Z,8.43
2022-10-20T06:25:58.884Z,8.44
2022-10-20T06:26:58.774Z,8.43
2022-10-20T06:27:58.782Z,8.48
2022-10-20T06:29:03.921Z,8.44
2022-10-20T06:29:59.821Z,8.45
2022-10-20T06:30:58.798Z,8.50
2022-10-20T06:31:58.752Z,8.50
2022-10-20T06:32:58.731Z,8.50
2022-10-20T06:33:58.707Z,8.53
2022-10-20T06:34:58.680Z,8.55
2022-10-20T06:35:58.679Z,8.56
2022-10-20T06:36:58.698Z,8.56
2022-10-20T06:37:58.696Z,8.56
2022-10-20T06:38:58.729Z,8.58
2022-10-20T06:39:58.642Z,8.56
2022-10-20T06:40:58.640Z,8.58
2022-10-20T06:41:58.728Z,8.58
2022-10-20T06:42:58.628Z,8.62
2022-10-20T06:43:58.606Z,8.61
2022-10-20T06:44:58.572Z,8.59
2022-10-20T06:45:58.623Z,8.62
2022-10-20T06:46:58.643Z,8.62
2022-10-20T06:47:58.605Z,8.62
2022-10-20T06:48:58.972Z,8.68
2022-10-20T06:49:58.600Z,8.68
2022-10-20T06:50:58.594Z,8.66
2022-10-20T06:51:58.639Z,8.68
2022-10-20T06:52:58.546Z,8.68
2022-10-20T06:53:58.479Z,8.68
2022-10-20T06:54:58.471Z,8.74
2022-10-20T06:55:58.504Z,8.79
2022-10-20T06:56:58.452Z,8.76
2022-10-20T06:57:58.398Z,8.79
2022-10-20T06:58:58.375Z,8.77
2022-10-20T08:21:29.708Z,13.60
2022-10-20T08:22:29.644Z,13.84
2022-10-20T08:23:29.631Z,14.15
2022-10-20T08:24:29.646Z,14.35
2022-10-20T08:25:29.613Z,14.50
2022-10-20T08:26:29.587Z,14.57
2022-10-20T08:27:29.610Z,14.64
2022-10-20T08:28:29.560Z,14.72
2022-10-20T08:29:29.553Z,14.78
2022-10-20T08:30:29.534Z,14.80
2022-10-20T08:31:29.513Z,14.81
2022-10-20T08:32:29.528Z,14.83
2022-10-20T08:33:29.489Z,14.83
2022-10-20T08:34:29.478Z,14.83
2022-10-20T08:35:29.457Z,14.91
2022-10-20T08:36:29.449Z,14.91
2022-10-20T08:37:29.449Z,14.92
2022-10-20T08:38:29.412Z,14.98
2022-10-20T08:39:29.414Z,15.03
2022-10-20T08:40:29.401Z,15.07
2022-10-20T08:41:38.743Z,15.10
2022-10-20T08:42:30.377Z,15.13
2022-10-20T08:43:29.356Z,15.17
2022-10-20T08:44:29.385Z,15.20
2022-10-20T08:45:29.321Z,15.23
2022-10-20T08:46:29.327Z,15.25
2022-10-20T08:47:32.437Z,15.29
2022-10-20T08:48:29.283Z,15.27
2022-10-20T08:49:29.286Z,15.25
2022-10-20T08:50:29.270Z,15.31
2022-10-20T08:51:29.249Z,15.34
2022-10-20T08:52:29.229Z,15.36
2022-10-20T08:53:29.220Z,15.35
2022-10-20T08:54:29.206Z,15.34
2022-10-20T08:55:29.229Z,15.41
2022-10-20T08:56:29.185Z,15.43
2022-10-20T08:57:29.171Z,15.44
2022-10-20T08:58:29.148Z,15.47
2022-10-20T08:59:29.144Z,15.50
2022-10-20T09:00:29.121Z,15.50
2022-10-20T09:01:29.200Z,15.53
2022-10-20T09:02:29.091Z,15.62
2022-10-20T09:03:29.087Z,15.68
2022-10-20T09:04:29.129Z,15.74
2022-10-20T09:05:29.053Z,15.76
2022-10-20T09:06:29.041Z,15.72
2022-10-20T09:07:29.064Z,15.75
2022-10-20T09:08:29.087Z,15.75
2022-10-20T09:09:28.998Z,15.74
2022-10-20T09:10:28.993Z,15.74
2022-10-20T09:11:28.975Z,15.80
2022-10-20T09:12:31.128Z,15.76
2022-10-20T09:13:28.966Z,15.72
2022-10-20T09:14:28.935Z,15.65
2022-10-20T09:15:28.932Z,15.59
2022-10-20T09:16:40.751Z,15.57
2022-10-20T09:17:29.897Z,15.60
2022-10-20T09:18:28.898Z,15.62
2022-10-20T09:19:28.871Z,15.62
2022-10-20T09:20:28.852Z,15.68
2022-10-20T09:21:28.857Z,15.75
2022-10-20T09:22:33.354Z,15.82
2022-10-20T09:23:40.481Z,15.82
2022-10-20T09:24:29.971Z,15.82
2022-10-20T09:25:28.790Z,15.87
2022-10-20T09:26:39.080Z,15.83
2022-10-20T09:27:29.774Z,15.80
2022-10-20T09:28:34.778Z,15.86
2022-10-20T09:29:29.731Z,15.87
2022-10-20T09:30:28.715Z,15.84
2022-10-20T09:31:28.711Z,15.78
2022-10-20T09:32:45.481Z,15.82
2022-10-20T09:33:29.719Z,15.80
2022-10-20T09:34:28.698Z,15.83
2022-10-20T09:35:28.653Z,15.82
2022-10-20T09:36:28.637Z,15.84
2022-10-20T09:37:28.634Z,15.83
2022-10-20T09:38:28.627Z,15.86
2022-10-20T09:39:28.593Z,15.83
2022-10-20T09:40:28.630Z,15.83
2022-10-20T09:41:28.573Z,15.87
2022-10-20T09:42:28.563Z,15.87
2022-10-20T09:43:28.544Z,15.86
2022-10-20T09:44:28.524Z,15.84
2022-10-20T09:45:28.556Z,15.86
2022-10-20T09:46:28.498Z,15.86
2022-10-20T09:47:28.526Z,15.86
2022-10-20T09:48:28.508Z,15.86
2022-10-20T09:49:28.459Z,15.86
2022-10-20T09:50:28.446Z,15.87
2022-10-20T09:51:28.457Z,15.89
2022-10-20T09:52:28.416Z,15.92
2022-10-20T09:53:28.407Z,15.89
2022-10-20T09:54:28.427Z,15.90
2022-10-20T09:55:28.380Z,15.89
2022-10-20T09:56:28.379Z,15.87
2022-10-20T09:57:28.362Z,15.83
2022-10-20T09:58:28.387Z,15.83
2022-10-20T09:59:28.347Z,15.76
2022-10-20T10:00:43.566Z,15.76
2022-10-20T10:01:29.348Z,15.75
2022-10-20T10:02:28.309Z,15.74
2022-10-20T10:03:28.269Z,15.71
2022-10-20T10:04:28.287Z,15.75
2022-10-20T10:05:28.271Z,15.75
2022-10-20T10:06:28.278Z,15.71
2022-10-20T10:07:28.224Z,15.69
2022-10-20T10:08:28.287Z,15.71
2022-10-20T10:09:28.219Z,15.68
2022-10-20T10:10:28.188Z,15.68
2022-10-20T10:11:28.192Z,15.67
2022-10-20T10:12:28.173Z,15.64
2022-10-20T10:13:28.138Z,15.62
2022-10-20T10:14:28.161Z,15.59
2022-10-20T10:15:28.123Z,15.57
2022-10-20T10:16:28.105Z,15.57
2022-10-20T10:17:28.113Z,15.57
2022-10-20T10:18:28.116Z,15.57
2022-10-20T10:19:28.077Z,15.59
2022-10-20T10:20:28.096Z,15.62
2022-10-20T10:21:28.055Z,15.59
2022-10-20T10:22:28.049Z,15.60
2022-10-20T10:23:28.011Z,15.62
2022-10-20T10:24:27.995Z,15.62
2022-10-20T10:25:27.984Z,15.64
2022-10-20T10:26:27.970Z,15.67
2022-10-20T10:27:27.965Z,15.65
2022-10-20T10:28:27.982Z,15.65
2022-10-20T10:29:27.949Z,15.69
2022-10-20T10:30:27.915Z,15.72
2022-10-20T10:31:27.901Z,15.72
2022-10-20T10:32:27.889Z,15.71
2022-10-20T10:33:27.910Z,15.71
2022-10-20T10:34:27.862Z,15.76
2022-10-20T10:35:27.893Z,15.82
2022-10-20T10:36:27.843Z,15.82
2022-10-20T10:37:29.723Z,15.84
2022-10-20T10:38:27.816Z,15.89
2022-10-20T10:39:27.787Z,15.89
2022-10-20T10:40:27.814Z,15.89
2022-10-20T10:41:27.785Z,15.87
2022-10-20T10:42:27.771Z,15.76
2022-10-20T10:43:27.738Z,15.74
2022-10-20T10:44:27.726Z,15.67
2022-10-20T10:45:27.713Z,15.65
2022-10-20T10:46:27.723Z,15.57
2022-10-20T10:47:27.718Z,15.49
2022-10-20T10:48:27.695Z,15.43
2022-10-20T10:49:27.680Z,15.39
2022-10-20T10:50:27.658Z,15.32
2022-10-20T10:51:27.640Z,15.28
2022-10-20T10:52:27.638Z,15.23
2022-10-20T10:53:27.597Z,15.27
2022-10-20T10:54:27.596Z,15.25
2022-10-20T10:55:53.236Z,15.27
2022-10-20T10:56:28.561Z,15.28
2022-10-20T10:57:27.592Z,15.34
2022-10-20T10:58:27.540Z,15.29
2022-10-20T10:59:27.535Z,15.32
2022-10-20T11:00:27.505Z,15.35
2022-10-20T11:01:27.490Z,15.34
2022-10-20T11:02:27.503Z,15.32
2022-10-20T11:03:27.500Z,15.35
2022-10-20T11:04:27.465Z,15.39
2022-10-20T11:05:27.468Z,15.39
2022-10-20T11:06:27.436Z,15.44
2022-10-20T11:07:27.449Z,15.44
2022-10-20T11:08:27.480Z,15.44
2022-10-20T11:09:27.441Z,15.46
2022-10-20T11:10:27.390Z,15.49
2022-10-20T11:11:27.373Z,15.47
2022-10-20T11:12:27.343Z,15.50
2022-10-20T11:13:27.357Z,15.50
2022-10-20T11:14:27.336Z,15.47
2022-10-20T11:15:27.352Z,15.47
2022-10-20T11:16:27.307Z,15.44
2022-10-20T11:17:27.304Z,15.41
2022-10-20T11:18:27.285Z,15.43
2022-10-20T11:19:27.262Z,15.39
2022-10-20T11:20:27.263Z,15.36
2022-10-20T11:21:27.244Z,15.38
2022-10-20T11:22:27.213Z,15.41
2022-10-20T11:23:27.257Z,15.41
2022-10-20T11:24:27.196Z,15.39
2022-10-20T11:25:27.187Z,15.38
2022-10-20T11:26:29.149Z,15.35
2022-10-20T11:27:27.149Z,15.38
2022-10-20T11:28:27.138Z,15.35
2022-10-20T11:29:27.131Z,15.32
2022-10-20T11:30:27.108Z,15.34
2022-10-20T11:31:27.148Z,15.29
2022-10-20T11:32:27.171Z,15.28
2022-10-20T11:33:27.070Z,15.32
2022-10-20T11:34:27.076Z,15.34
2022-10-20T11:35:27.068Z,15.34
2022-10-20T11:36:27.054Z,15.31
2022-10-20T11:37:27.041Z,15.34
2022-10-20T11:38:27.012Z,15.29
2022-10-20T11:39:27.003Z,15.29
2022-10-20T11:40:27.008Z,15.34
2022-10-20T11:41:26.964Z,15.36
2022-10-20T11:42:26.975Z,15.35
2022-10-20T11:43:26.986Z,15.36
2022-10-20T11:44:26.935Z,15.34
2022-10-20T11:45:26.953Z,15.31
2022-10-20T11:46:26.904Z,15.27
2022-10-20T11:47:26.907Z,15.25
2022-10-20T11:48:26.877Z,15.21
2022-10-20T11:49:26.874Z,15.20
2022-10-20T11:50:26.885Z,15.19
2022-10-20T11:51:26.845Z,15.17
2022-10-20T11:52:26.835Z,15.16
2022-10-20T11:53:26.818Z,15.13
2022-10-20T11:54:26.818Z,15.10
2022-10-20T11:55:26.804Z,15.07
2022-10-20T11:56:26.807Z,15.09
2022-10-20T11:57:26.798Z,15.03
2022-10-20T11:58:26.758Z,15.01
2022-10-20T11:59:26.750Z,14.99
2022-10-20T12:00:26.740Z,14.95
2022-10-20T12:01:26.726Z,14.94
2022-10-20T12:02:26.682Z,14.91
2022-10-20T12:03:26.703Z,14.92
2022-10-20T12:04:26.659Z,14.89
2022-10-20T12:05:26.649Z,14.83
2022-10-20T12:06:26.649Z,14.80
2022-10-20T12:07:26.629Z,14.77
2022-10-20T12:08:30.831Z,14.73
2022-10-20T12:09:26.707Z,14.69
2022-10-20T12:10:26.592Z,14.68
2022-10-20T12:11:26.615Z,14.61
2022-10-20T12:12:26.572Z,14.60
2022-10-20T12:13:26.705Z,14.54
2022-10-20T12:14:26.536Z,14.54
2022-10-20T12:15:26.595Z,14.52
2022-10-20T12:16:26.504Z,14.54
2022-10-20T12:17:26.513Z,14.52
2022-10-20T12:18:26.494Z,14.45
2022-10-20T12:19:26.508Z,14.39
2022-10-20T12:20:26.494Z,14.39
2022-10-20T12:21:26.850Z,14.37
2022-10-20T12:22:26.577Z,14.37
2022-10-20T12:23:26.425Z,14.33
2022-10-20T12:24:26.451Z,14.29
2022-10-20T12:25:26.399Z,14.29
2022-10-20T12:26:26.526Z,14.25
2022-10-20T12:27:26.364Z,14.27
2022-10-20T12:28:26.416Z,14.21
2022-10-20T12:29:26.338Z,14.20
2022-10-20T12:30:26.353Z,14.20
2022-10-20T12:31:26.327Z,14.20
2022-10-20T12:32:26.335Z,14.21
2022-10-20T12:33:26.312Z,14.20
2022-10-20T12:34:26.305Z,14.17
2022-10-20T12:35:26.447Z,14.17
2022-10-20T12:36:26.259Z,14.22
2022-10-20T12:37:26.235Z,14.22
2022-10-20T12:38:26.225Z,14.21
2022-10-20T12:39:26.244Z,14.20
2022-10-20T12:40:26.202Z,14.21
2022-10-20T12:41:26.190Z,14.18
2022-10-20T12:42:26.156Z,14.18
2022-10-20T12:43:26.185Z,14.21
2022-10-20T12:44:26.130Z,14.20
2022-10-20T12:45:26.146Z,14.21
2022-10-20T12:46:26.133Z,14.21
2022-10-20T12:47:26.154Z,14.22
2022-10-20T12:48:26.080Z,14.25
2022-10-20T12:49:26.068Z,14.25
2022-10-20T12:50:26.054Z,14.32
2022-10-20T12:51:26.024Z,14.39
2022-10-20T12:52:26.062Z,14.43
2022-10-20T12:53:26.008Z,14.47
2022-10-20T12:54:25.993Z,14.54
2022-10-20T12:55:26.042Z,14.51
2022-10-20T12:56:26.029Z,14.51
2022-10-20T12:57:25.968Z,14.51
2022-10-20T12:58:25.957Z,14.55
2022-10-20T12:59:25.938Z,14.57
2022-10-20T13:00:25.969Z,14.58
2022-10-20T13:09:39.382Z,14.86
2022-10-20T13:10:39.349Z,14.77
2022-10-20T13:11:39.359Z,14.75
2022-10-20T13:12:39.308Z,14.80
2022-10-20T13:13:39.308Z,14.80
2022-10-20T13:14:39.322Z,14.81
2022-10-20T13:15:39.288Z,14.77
2022-10-20T13:16:39.283Z,14.73
2022-10-20T13:17:39.587Z,14.70
2022-10-20T13:18:39.240Z,14.70
2022-10-20T13:19:39.242Z,14.72
2022-10-20T13:20:39.217Z,14.72
2022-10-20T13:21:39.194Z,14.73
2022-10-20T13:22:39.198Z,14.78
2022-10-20T13:23:39.165Z,14.75
2022-10-20T13:24:42.768Z,14.77
2022-10-20T13:25:40.153Z,14.78
2022-10-20T13:26:39.141Z,14.81
2022-10-20T13:27:39.399Z,14.86
2022-10-20T13:28:39.125Z,14.89
2022-10-20T13:29:39.151Z,14.92
2022-10-20T13:30:39.121Z,14.96
2022-10-20T13:31:39.096Z,15.01
2022-10-20T13:32:47.785Z,15.09
2022-10-20T13:34:02.447Z,15.11
2022-10-20T13:34:40.023Z,15.16
2022-10-20T13:35:39.054Z,15.21
2022-10-20T13:36:39.021Z,15.27
2022-10-20T13:37:38.982Z,15.35
2022-10-20T13:38:38.962Z,15.43
2022-10-20T13:39:38.942Z,15.44
2022-10-20T13:40:38.950Z,15.56
2022-10-20T13:41:38.964Z,15.67
2022-10-20T13:42:39.204Z,15.78
2022-10-20T13:43:38.910Z,15.90
2022-10-20T13:44:38.875Z,15.97
2022-10-20T13:45:38.866Z,15.96
2022-10-20T13:46:38.901Z,15.94
2022-10-20T13:47:38.881Z,15.97
2022-10-20T13:48:38.875Z,16.07
2022-10-20T13:49:38.800Z,16.09
2022-10-20T13:50:38.805Z,16.11
2022-10-20T13:51:38.784Z,16.15
2022-10-20T13:52:39.094Z,16.23
2022-10-20T13:53:38.764Z,16.20
2022-10-20T13:54:38.786Z,16.20
2022-10-20T13:55:38.767Z,16.25
2022-10-20T13:56:38.735Z,16.28
2022-10-20T13:57:38.717Z,16.27
2022-10-20T13:58:38.746Z,16.20
2022-10-20T13:59:40.665Z,16.08
2022-10-20T14:00:38.750Z,16.05
2022-10-20T14:01:38.650Z,15.94
2022-10-20T14:02:38.968Z,15.93
2022-10-20T14:03:38.654Z,15.94
2022-10-20T14:04:38.625Z,16.00
2022-10-20T14:05:38.652Z,16.07
2022-10-20T14:06:38.587Z,16.09
2022-10-20T14:07:38.579Z,16.15
2022-10-20T14:08:38.621Z,16.41
2022-10-20T14:09:40.625Z,16.71
2022-10-20T14:10:39.596Z,17.21
2022-10-20T14:11:38.507Z,17.74
2022-10-20T14:12:38.765Z,18.15
2022-10-20T14:13:38.498Z,18.02
2022-10-20T14:14:38.523Z,17.84
2022-10-20T14:15:38.474Z,17.68
2022-10-20T14:16:38.450Z,17.55
2022-10-20T14:17:40.674Z,17.58
2022-10-20T14:18:38.440Z,17.43
2022-10-20T14:19:39.088Z,17.64
2022-10-20T14:20:38.397Z,17.82
2022-10-20T14:21:38.399Z,17.62
2022-10-20T14:22:38.808Z,17.40
2022-10-20T14:23:38.422Z,17.30
2022-10-20T14:24:38.366Z,17.46
2022-10-20T14:25:38.343Z,17.81
2022-10-20T14:26:38.312Z,18.25
2022-10-20T14:27:38.702Z,18.54
2022-10-20T14:28:38.282Z,18.76
2022-10-20T14:29:38.284Z,18.99
2022-10-20T14:30:41.143Z,19.07
2022-10-20T14:31:38.266Z,18.82
2022-10-20T14:32:38.238Z,18.57
2022-10-20T14:33:38.236Z,18.51
2022-10-20T14:34:38.233Z,18.55
2022-10-20T14:35:38.202Z,18.76
2022-10-20T14:36:41.059Z,18.76
2022-10-20T14:37:39.480Z,18.37
2022-10-20T14:38:38.149Z,18.17
2022-10-20T14:39:38.133Z,17.79
2022-10-20T14:40:38.163Z,17.56
2022-10-20T14:41:38.118Z,17.44
2022-10-20T14:42:38.134Z,17.37
2022-10-20T14:43:38.071Z,17.28
2022-10-20T14:44:38.079Z,17.15
2022-10-20T14:45:38.049Z,17.12
2022-10-20T14:46:38.050Z,17.06
2022-10-20T14:47:38.244Z,17.01
2022-10-20T14:48:38.035Z,17.03
2022-10-20T14:49:37.993Z,17.00
2022-10-20T14:50:37.992Z,16.93
2022-10-20T14:51:37.979Z,16.88
2022-10-20T14:52:38.417Z,16.85
2022-10-20T14:53:37.960Z,16.78
2022-10-20T14:54:38.093Z,16.75
2022-10-20T14:55:37.927Z,16.75
2022-10-20T14:56:37.908Z,16.73
2022-10-20T14:57:38.226Z,16.75
2022-10-20T14:58:37.887Z,16.76
2022-10-20T14:59:37.883Z,16.75
2022-10-20T15:00:37.867Z,16.78
2022-10-20T15:01:37.907Z,16.78
2022-10-20T15:02:37.807Z,16.75
2022-10-20T15:03:37.837Z,16.73
2022-10-20T15:04:37.835Z,16.71
2022-10-20T15:05:37.794Z,16.70
2022-10-20T15:06:37.779Z,16.73
2022-10-20T15:07:37.994Z,16.73
2022-10-20T15:08:37.801Z,16.68
2022-10-20T15:09:37.731Z,16.64
2022-10-20T15:10:37.735Z,16.66
2022-10-20T15:11:37.681Z,16.64
2022-10-20T15:12:37.989Z,16.68
2022-10-20T15:13:37.712Z,16.63
2022-10-20T15:14:37.661Z,16.61
2022-10-20T15:15:37.642Z,16.64
2022-10-20T15:16:37.640Z,16.64
2022-10-20T15:17:37.961Z,16.61
2022-10-20T15:18:39.327Z,16.57
2022-10-20T15:19:37.633Z,16.57
2022-10-20T15:20:37.613Z,16.60
2022-10-20T15:21:37.615Z,16.58
2022-10-20T15:22:37.732Z,16.56
2022-10-20T15:23:37.545Z,16.56
2022-10-20T15:24:37.545Z,16.57
2022-10-20T15:25:37.529Z,16.56
2022-10-20T15:26:37.502Z,16.57
2022-10-20T15:27:37.536Z,16.53
2022-10-20T15:28:37.466Z,16.56
2022-10-20T15:29:37.477Z,16.57
2022-10-20T15:30:37.436Z,16.56
2022-10-20T15:32:37.587Z,16.53
2022-10-20T15:33:37.432Z,16.52
2022-10-20T15:34:37.387Z,16.56
2022-10-20T15:35:37.388Z,16.57
2022-10-20T15:36:41.868Z,16.56
2022-10-20T15:37:38.347Z,16.56
2022-10-20T15:38:37.400Z,16.53
2022-10-20T15:39:37.401Z,16.57
2022-10-20T15:40:37.304Z,16.53
2022-10-20T15:41:37.331Z,16.52
2022-10-20T15:42:37.519Z,16.48
2022-10-20T15:43:37.302Z,16.50
2022-10-20T15:44:37.297Z,16.52
2022-10-20T15:45:37.245Z,16.53
2022-10-20T15:46:37.209Z,16.56
2022-10-20T15:47:37.214Z,16.53
2022-10-20T15:48:37.197Z,16.56
2022-10-20T15:49:37.197Z,16.56
2022-10-20T15:50:37.189Z,16.53
2022-10-20T15:51:37.153Z,16.49
2022-10-20T15:52:37.426Z,16.48
2022-10-20T15:53:37.170Z,16.46
2022-10-20T15:54:37.143Z,16.45
2022-10-20T15:55:37.118Z,16.45
2022-10-20T15:56:37.108Z,16.45
2022-10-20T15:57:37.298Z,16.42
2022-10-20T15:58:39.732Z,16.41
2022-10-20T15:59:37.047Z,16.39
2022-10-20T16:00:37.092Z,16.39
2022-10-20T16:01:37.051Z,16.41
2022-10-20T16:02:37.238Z,16.42
2022-10-20T16:03:36.976Z,16.42
2022-10-20T16:04:37.006Z,16.45
2022-10-20T16:05:37.000Z,16.42
2022-10-20T16:06:36.942Z,16.39
2022-10-20T16:07:44.482Z,16.33
2022-10-20T16:08:37.006Z,16.30
2022-10-20T16:09:36.919Z,16.28
2022-10-20T16:10:36.917Z,16.28
2022-10-20T16:11:36.938Z,16.24
2022-10-20T16:12:37.076Z,16.23
2022-10-20T16:13:36.879Z,16.23
2022-10-20T16:14:36.839Z,16.17
2022-10-20T16:15:36.837Z,16.12
2022-10-20T16:16:36.902Z,16.04
2022-10-20T16:17:36.863Z,16.02
2022-10-20T16:18:36.788Z,16.04
2022-10-20T16:19:36.798Z,16.05
2022-10-20T16:20:36.792Z,16.04
2022-10-20T16:21:36.898Z,16.04
2022-10-20T16:22:37.084Z,16.01
2022-10-20T16:23:40.601Z,15.96
2022-10-20T16:24:37.722Z,15.97
2022-10-20T16:25:36.732Z,15.97
2022-10-20T16:26:36.692Z,15.96
2022-10-20T16:27:36.917Z,15.94
2022-10-20T16:28:36.655Z,15.90
2022-10-20T16:29:36.664Z,15.87
2022-10-20T16:30:36.853Z,15.87
2022-10-20T16:31:36.645Z,15.83
2022-10-20T16:32:37.006Z,15.83
2022-10-20T16:33:36.601Z,15.82
2022-10-20T16:34:36.577Z,15.75
2022-10-20T16:35:36.564Z,15.72
2022-10-20T16:36:36.566Z,15.71
2022-10-20T16:37:36.953Z,15.71
2022-10-20T16:38:39.179Z,15.69
2022-10-20T16:39:36.506Z,15.68
2022-10-20T16:40:36.506Z,15.71
2022-10-20T16:41:36.490Z,15.68
2022-10-20T16:42:36.473Z,15.72
2022-10-20T16:43:36.467Z,15.71
2022-10-20T16:44:36.439Z,15.71
2022-10-20T16:45:36.439Z,15.65
2022-10-20T16:46:36.420Z,15.67